Time;durP1;ratioP1;P1;durP2;ratioP2;P2;SDS_P1;SDS_P2;PMS_P1;PMS_P2;Temp;Humidity;BMP_temperature;BMP_pressure;BME280_temperature;BME280_humidity;BME280_pressure;Samples;Min_cycle;Max_cycle;Signal;HPM_P1;HPM_P2
2021/01/27 00:00:30;;;;;;;12.93;2.00;;;;;;;;;;5072548;28;20021;-55
2021/01/27 00:02:57;;;;;;;6.87;1.63;;;;;;;;;;5072649;28;20020;-55
2021/01/27 00:05:26;;;;;;;2.20;1.50;;;;;;;;;;5072509;28;20426;-55
2021/01/27 00:07:53;;;;;;;8.60;1.57;;;;;;;;;;5072556;28;20032;-55
2021/01/27 00:10:20;;;;;;;4.03;1.60;;;;;;;;;;5072605;28;20063;-55
2021/01/27 00:12:47;;;;;;;8.40;1.90;;;;;;;;;;5072263;28;20040;-55
2021/01/27 00:15:16;;;;;;;4.70;1.80;;;;;;;;;;5072547;28;20028;-55
2021/01/27 00:17:43;;;;;;;3.47;1.97;;;;;;;;;;5072355;28;20112;-55
2021/01/27 00:20:12;;;;;;;7.23;1.87;;;;;;;;;;5072527;28;20044;-56
2021/01/27 00:22:38;;;;;;;8.80;2.27;;;;;;;;;;5072503;28;20107;-55
2021/01/27 00:25:06;;;;;;;3.80;1.93;;;;;;;;;;5072217;28;20020;-55
2021/01/27 00:27:33;;;;;;;3.73;1.53;;;;;;;;;;5072311;28;20155;-55
2021/01/27 00:30:00;;;;;;;11.87;3.10;;;;;;;;;;5072230;28;20027;-55
2021/01/27 00:32:28;;;;;;;5.03;1.93;;;;;;;;;;5072210;28;20052;-55
2021/01/27 00:34:55;;;;;;;4.13;2.00;;;;;;;;;;5072242;28;20033;-55
2021/01/27 00:37:22;;;;;;;6.73;1.90;;;;;;;;;;5072146;28;20021;-55
2021/01/27 00:39:49;;;;;;;10.50;2.40;;;;;;;;;;5072194;28;20032;-55
2021/01/27 00:42:16;;;;;;;7.60;1.93;;;;;;;;;;5072093;28;20024;-55
2021/01/27 00:44:43;;;;;;;6.73;2.13;;;;;;;;;;5071996;28;20380;-55
2021/01/27 00:47:09;;;;;;;7.93;2.00;;;;;;;;;;5074804;28;20495;-55
2021/01/27 00:49:36;;;;;;;5.63;2.47;;;;;;;;;;5075952;28;20044;-55
2021/01/27 00:52:03;;;;;;;5.77;1.93;;;;;;;;;;5075773;28;20048;-55
2021/01/27 00:54:30;;;;;;;5.07;1.77;;;;;;;;;;5075688;28;20421;-55
2021/01/27 00:56:57;;;;;;;5.53;2.00;;;;;;;;;;5075824;28;20379;-55
2021/01/27 00:59:23;;;;;;;4.43;2.00;;;;;;;;;;5075591;28;20060;-55
2021/01/27 01:01:50;;;;;;;7.10;1.93;;;;;;;;;;5075516;28;20020;-55
2021/01/27 01:04:17;;;;;;;6.63;2.30;;;;;;;;;;5075604;28;20035;-55
2021/01/27 01:06:44;;;;;;;5.07;1.57;;;;;;;;;;5075408;28;20036;-55
2021/01/27 01:09:10;;;;;;;7.13;2.70;;;;;;;;;;5075456;28;20024;-55
2021/01/27 01:11:37;;;;;;;6.80;1.80;;;;;;;;;;5075501;28;20020;-55
2021/01/27 01:14:04;;;;;;;6.93;2.03;;;;;;;;;;5075481;28;20052;-55
2021/01/27 01:16:31;;;;;;;9.53;2.30;;;;;;;;;;5075335;28;20024;-55
2021/01/27 01:18:57;;;;;;;4.73;2.00;;;;;;;;;;5075445;28;20502;-55
2021/01/27 01:21:24;;;;;;;4.53;2.13;;;;;;;;;;5075530;28;20059;-55
2021/01/27 01:23:51;;;;;;;4.87;2.27;;;;;;;;;;5075184;28;20037;-55
2021/01/27 01:26:18;;;;;;;7.23;1.97;;;;;;;;;;5075032;28;20107;-55
2021/01/27 01:28:44;;;;;;;9.17;2.17;;;;;;;;;;5075305;28;20025;-55
2021/01/27 01:31:11;;;;;;;8.30;2.50;;;;;;;;;;5075032;28;20024;-55
2021/01/27 01:33:38;;;;;;;5.53;2.50;;;;;;;;;;5075034;28;20383;-55
2021/01/27 01:36:05;;;;;;;5.07;2.10;;;;;;;;;;5074978;28;20032;-55
2021/01/27 01:38:32;;;;;;;5.93;2.07;;;;;;;;;;5075105;28;20108;-55
2021/01/27 01:41:00;;;;;;;3.70;2.07;;;;;;;;;;5075015;28;20033;-55
2021/01/27 01:43:28;;;;;;;5.40;2.30;;;;;;;;;;5074828;28;20028;-55
2021/01/27 01:45:56;;;;;;;4.87;2.20;;;;;;;;;;5074661;28;20032;-55
2021/01/27 01:48:37;;;;;;;6.83;2.00;;;;;;;;;;5074778;28;20043;-55
2021/01/27 01:51:03;;;;;;;5.17;2.00;;;;;;;;;;5074694;28;20545;-55
2021/01/27 01:53:30;;;;;;;4.47;1.90;;;;;;;;;;5074672;28;20112;-55
2021/01/27 01:56:00;;;;;;;11.03;2.70;;;;;;;;;;5074610;28;20024;-55
2021/01/27 01:58:27;;;;;;;4.23;2.57;;;;;;;;;;5074406;28;20028;-55
2021/01/27 02:00:58;;;;;;;8.13;2.27;;;;;;;;;;5074728;28;20381;-55
2021/01/27 02:03:27;;;;;;;8.33;2.70;;;;;;;;;;5074574;28;20024;-55
2021/01/27 02:05:54;;;;;;;7.73;2.43;;;;;;;;;;5074381;28;20021;-55
2021/01/27 02:08:21;;;;;;;6.80;2.53;;;;;;;;;;5074344;28;20043;-54
2021/01/27 02:10:48;;;;;;;3.83;2.23;;;;;;;;;;5074362;28;20047;-55
2021/01/27 02:13:14;;;;;;;4.33;2.70;;;;;;;;;;5074273;28;20031;-55
2021/01/27 02:15:52;;;;;;;4.17;2.03;;;;;;;;;;5074235;28;20271;-55
2021/01/27 02:18:42;;;;;;;5.77;2.60;;;;;;;;;;5074282;28;20025;-54
2021/01/27 02:21:09;;;;;;;7.00;1.90;;;;;;;;;;5017205;28;20496;-55
2021/01/27 02:23:38;;;;;;;10.57;2.87;;;;;;;;;;5054145;28;20177;-55
2021/01/27 02:26:23;;;;;;;8.03;2.20;;;;;;;;;;5053949;28;20021;-55
2021/01/27 02:29:08;;;;;;;7.70;2.05;;;;;;;;;;5054106;28;20062;-54
2021/01/27 02:31:34;;;;;;;;;;;;;;;;;;5054323;28;20032;-54
2021/01/27 02:34:04;;;;;;;4.53;2.20;;;;;;;;;;5053931;28;20306;-55
2021/01/27 02:36:33;;;;;;;3.60;2.10;;;;;;;;;;5053830;28;20029;-55
2021/01/27 02:39:02;;;;;;;9.30;2.00;;;;;;;;;;5053762;28;20036;-55
2021/01/27 02:41:29;;;;;;;6.90;2.40;;;;;;;;;;5053760;28;20029;-55
2021/01/27 02:43:57;;;;;;;7.83;2.53;;;;;;;;;;5053780;28;20032;-55
2021/01/27 02:46:37;;;;;;;6.37;2.47;;;;;;;;;;5053826;28;20491;-54
2021/01/27 02:49:10;;;;;;;5.70;2.50;;;;;;;;;;5053552;28;20029;-54
2021/01/27 02:51:49;;;;;;;3.50;2.10;;;;;;;;;;5053441;28;20029;-55
2021/01/27 02:54:19;;;;;;;5.03;1.93;;;;;;;;;;5053701;28;20017;-55
2021/01/27 02:57:02;;;;;;;4.73;2.20;;;;;;;;;;5053572;28;20049;-55
2021/01/27 02:59:44;;;;;;;2.60;1.70;;;;;;;;;;5053560;28;20075;-54
2021/01/27 03:02:16;;;;;;;7.83;1.80;;;;;;;;;;5053354;28;20098;-54
2021/01/27 03:04:59;;;;;;;4.53;1.83;;;;;;;;;;5053384;28;20025;-54
2021/01/27 03:07:33;;;;;;;5.80;2.17;;;;;;;;;;5053251;28;20037;-54
2021/01/27 03:10:04;;;;;;;8.80;1.98;;;;;;;;;;5052753;28;20033;-54
2021/01/27 03:12:30;;;;;;;8.50;1.67;;;;;;;;;;5053165;28;20025;-54
2021/01/27 03:14:57;;;;;;;10.67;2.10;;;;;;;;;;5053062;28;20075;-54
2021/01/27 03:17:24;;;;;;;7.07;1.93;;;;;;;;;;5053225;28;20028;-54
2021/01/27 03:19:51;;;;;;;5.87;2.13;;;;;;;;;;5055208;28;20025;-55
2021/01/27 03:22:20;;;;;;;4.13;1.60;;;;;;;;;;5073207;28;20356;-54
2021/01/27 03:24:50;;;;;;;5.93;2.50;;;;;;;;;;5072907;28;20081;-54
2021/01/27 03:27:20;;;;;;;6.73;2.60;;;;;;;;;;5072828;28;20705;-55
2021/01/27 03:29:49;;;;;;;6.00;2.20;;;;;;;;;;5072951;28;20020;-54
2021/01/27 03:32:35;;;;;;;15.20;4.33;;;;;;;;;;5072893;28;20095;-54
2021/01/27 03:35:10;;;;;;;4.13;1.77;;;;;;;;;;5072768;28;20048;-54
2021/01/27 03:37:37;;;;;;;;;;;;;;;;;;5073210;28;20074;-54
2021/01/27 03:40:09;;;;;;;4.07;1.90;;;;;;;;;;5072887;28;19904;-55
2021/01/27 03:42:56;;;;;;;4.13;1.60;;;;;;;;;;5072703;28;20031;-55
2021/01/27 03:45:25;;;;;;;3.90;1.80;;;;;;;;;;5055602;28;20036;-54
2021/01/27 03:47:55;;;;;;;4.53;1.60;;;;;;;;;;5072896;28;20383;-54
2021/01/27 03:50:23;;;;;;;6.23;1.67;;;;;;;;;;5072840;28;20016;-54
2021/01/27 03:53:01;;;;;;;2.27;1.40;;;;;;;;;;5072696;28;20025;-54
2021/01/27 03:55:30;;;;;;;2.47;1.43;;;;;;;;;;5072572;28;20027;-55
2021/01/27 03:58:06;;;;;;;5.73;2.00;;;;;;;;;;5072482;28;20479;-54
2021/01/27 04:00:33;;;;;;;3.27;1.67;;;;;;;;;;5072555;28;20021;-54
2021/01/27 04:03:11;;;;;;;3.23;1.80;;;;;;;;;;5054510;28;20024;-54
2021/01/27 04:05:38;;;;;;;3.00;1.50;;;;;;;;;;5072662;28;20020;-54
2021/01/27 04:08:06;;;;;;;4.83;2.10;;;;;;;;;;5072323;28;20043;-54
2021/01/27 04:10:33;;;;;;;6.70;2.00;;;;;;;;;;5072670;28;20016;-53
2021/01/27 04:13:00;;;;;;;4.80;2.57;;;;;;;;;;5072429;28;20013;-54
2021/01/27 04:15:27;;;;;;;10.70;2.13;;;;;;;;;;5072602;28;20066;-53
2021/01/27 04:17:54;;;;;;;2.70;1.60;;;;;;;;;;5072515;28;20048;-53
2021/01/27 04:20:22;;;;;;;4.53;2.13;;;;;;;;;;5072566;28;20442;-53
2021/01/27 04:22:49;;;;;;;7.33;1.90;;;;;;;;;;5076332;28;20040;-53
2021/01/27 04:25:16;;;;;;;6.17;2.00;;;;;;;;;;5076664;28;20424;-53
2021/01/27 04:27:43;;;;;;;5.37;1.60;;;;;;;;;;5076364;28;20123;-53
2021/01/27 04:30:12;;;;;;;2.40;1.40;;;;;;;;;;5076344;28;20024;-53
2021/01/27 04:32:38;;;;;;;6.27;1.97;;;;;;;;;;5076299;28;20028;-53
2021/01/27 04:35:06;;;;;;;4.23;1.90;;;;;;;;;;5076215;28;20028;-54
2021/01/27 04:37:32;;;;;;;4.87;2.13;;;;;;;;;;5076097;28;20039;-53
2021/01/27 04:39:59;;;;;;;3.80;1.90;;;;;;;;;;5076233;28;20024;-53
2021/01/27 04:42:27;;;;;;;6.43;2.63;;;;;;;;;;5075959;28;20449;-54
2021/01/27 04:44:56;;;;;;;3.50;1.90;;;;;;;;;;5075967;28;20020;-53
2021/01/27 04:47:26;;;;;;;5.73;1.80;;;;;;;;;;5075837;28;20421;-55
2021/01/27 04:49:55;;;;;;;4.63;1.90;;;;;;;;;;5075960;28;20025;-53
2021/01/27 04:52:44;;;;;;;4.57;1.70;;;;;;;;;;5075897;28;20378;-54
2021/01/27 04:55:26;;;;;;;4.60;2.37;;;;;;;;;;5063010;28;20069;-54
2021/01/27 04:58:11;;;;;;;7.40;2.13;;;;;;;;;;5075655;28;20082;-53
2021/01/27 05:00:41;;;;;;;3.80;2.22;;;;;;;;;;5075659;28;20460;-54
2021/01/27 05:03:13;;;;;;;5.83;2.40;;;;;;;;;;5075945;28;20498;-53
2021/01/27 05:05:43;;;;;;;3.23;2.13;;;;;;;;;;5075619;28;20383;-53
2021/01/27 05:08:21;;;;;;;3.67;2.23;;;;;;;;;;5075296;28;20342;-54
2021/01/27 05:10:56;;;;;;;3.30;2.20;;;;;;;;;;5075563;28;20032;-54
2021/01/27 05:13:36;;;;;;;3.10;2.10;;;;;;;;;;5075492;28;20031;-54
2021/01/27 05:16:14;;;;;;;8.33;2.47;;;;;;;;;;5075242;28;20112;-54
2021/01/27 05:18:41;;;;;;;4.83;1.87;;;;;;;;;;5075437;28;20424;-54
2021/01/27 05:21:21;;;;;;;3.43;1.90;;;;;;;;;;5075455;28;20053;-54
2021/01/27 05:23:48;;;;;;;3.07;1.97;;;;;;;;;;5075455;28;20032;-54
2021/01/27 05:26:15;;;;;;;4.20;1.80;;;;;;;;;;5075268;28;20104;-54
2021/01/27 05:28:44;;;;;;;4.33;1.80;;;;;;;;;;5075212;28;20111;-54
2021/01/27 05:31:11;;;;;;;6.90;2.87;;;;;;;;;;5074905;28;20028;-54
2021/01/27 05:33:48;;;;;;;4.33;2.00;;;;;;;;;;5074928;28;20021;-54
2021/01/27 05:36:22;;;;;;;3.50;1.67;;;;;;;;;;5075040;28;20025;-54
2021/01/27 05:38:49;;;;;;;3.20;1.83;;;;;;;;;;5075038;28;20032;-54
2021/01/27 05:41:21;;;;;;;3.30;2.00;;;;;;;;;;5074806;28;20495;-54
2021/01/27 05:43:48;;;;;;;3.67;1.90;;;;;;;;;;5074789;28;20028;-54
2021/01/27 05:46:28;;;;;;;3.93;2.00;;;;;;;;;;5074720;28;20025;-54
2021/01/27 05:48:55;;;;;;;5.87;2.07;;;;;;;;;;5074870;28;20479;-54
2021/01/27 05:51:35;;;;;;;3.37;1.90;;;;;;;;;;5074744;28;20075;-54
2021/01/27 05:54:18;;;;;;;3.37;1.90;;;;;;;;;;5074696;28;20024;-54
2021/01/27 05:56:45;;;;;;;4.87;2.50;;;;;;;;;;5074828;28;20382;-54
2021/01/27 05:59:21;;;;;;;4.77;2.03;;;;;;;;;;5074708;28;20028;-54
2021/01/27 06:01:49;;;;;;;4.80;2.00;;;;;;;;;;5074650;28;20021;-54
2021/01/27 06:04:17;;;;;;;9.33;2.30;;;;;;;;;;5074936;28;20027;-54
2021/01/27 06:06:44;;;;;;;4.03;1.90;;;;;;;;;;5074472;28;20063;-54
2021/01/27 06:09:12;;;;;;;3.20;2.00;;;;;;;;;;5074476;28;20102;-54
2021/01/27 06:11:38;;;;;;;2.80;1.73;;;;;;;;;;5074335;28;20056;-54
2021/01/27 06:14:13;;;;;;;3.40;1.80;;;;;;;;;;5074245;28;20028;-54
2021/01/27 06:16:45;;;;;;;4.15;2.03;;;;;;;;;;5074289;28;20442;-53
2021/01/27 06:19:16;;;;;;;4.83;1.53;;;;;;;;;;5074095;28;20021;-54
2021/01/27 06:22:02;;;;;;;3.40;1.90;;;;;;;;;;5074393;28;20423;-54
2021/01/27 06:24:28;;;;;;;;;;;;;;;;;;5074549;28;20035;-54
2021/01/27 06:27:04;;;;;;;5.53;1.73;;;;;;;;;;5074158;28;19919;-54
2021/01/27 06:29:39;;;;;;;2.63;1.67;;;;;;;;;;5074033;28;20036;-53
2021/01/27 06:32:24;;;;;;;4.77;1.87;;;;;;;;;;5073905;28;20025;-54
2021/01/27 06:34:54;;;;;;;4.60;2.00;;;;;;;;;;5074064;28;20017;-54
2021/01/27 06:37:27;;;;;;;4.70;1.70;;;;;;;;;;5073869;28;20042;-54
2021/01/27 06:40:09;;;;;;;4.07;1.80;;;;;;;;;;5074069;28;20031;-54
2021/01/27 06:42:41;;;;;;;3.77;1.50;;;;;;;;;;5073783;28;20067;-54
2021/01/27 06:45:20;;;;;;;3.07;1.70;;;;;;;;;;5073253;28;20028;-54
2021/01/27 06:48:09;;;;;;;5.03;1.50;;;;;;;;;;5073656;28;20044;-53
2021/01/27 06:50:54;;;;;;;2.83;1.70;;;;;;;;;;5073768;28;20372;-53
2021/01/27 06:53:49;;;;;;;3.17;1.45;;;;;;;;;;5073512;28;20424;-53
2021/01/27 06:56:16;;;;;;;4.22;1.80;;;;;;;;;;5052620;28;20032;-53
2021/01/27 06:58:46;;;;;;;2.50;1.40;;;;;;;;;;5073332;28;20029;-54
2021/01/27 07:01:22;;;;;;;5.87;1.43;;;;;;;;;;5073449;28;20459;-53
2021/01/27 07:04:07;;;;;;;4.90;1.97;;;;;;;;;;5073407;28;20099;-54
2021/01/27 07:06:49;;;;;;;5.40;2.08;;;;;;;;;;5073219;28;20055;-54
2021/01/27 07:09:34;;;;;;;2.97;1.50;;;;;;;;;;5073544;28;20034;-54
2021/01/27 07:12:19;;;;;;;2.40;1.52;;;;;;;;;;5073127;28;20028;-54
2021/01/27 07:14:45;;;;;;;3.70;1.87;;;;;;;;;;5073016;28;20024;-53
2021/01/27 07:17:23;;;;;;;3.27;2.00;;;;;;;;;;5073077;28;20376;-53
2021/01/27 07:19:56;;;;;;;4.30;2.47;;;;;;;;;;5073194;28;20018;-53
2021/01/27 07:22:28;;;;;;;2.73;1.73;;;;;;;;;;5073167;28;20045;-54
2021/01/27 07:25:13;;;;;;;3.50;1.70;;;;;;;;;;5073015;28;20049;-53
2021/01/27 07:27:47;;;;;;;2.75;1.48;;;;;;;;;;5072904;28;20123;-54
2021/01/27 07:30:19;;;;;;;3.70;1.60;;;;;;;;;;5072983;28;20021;-53
2021/01/27 07:32:48;;;;;;;2.43;1.50;;;;;;;;;;5072985;28;20051;-53
2021/01/27 07:35:18;;;;;;;2.77;1.40;;;;;;;;;;5072844;28;20074;-53
2021/01/27 07:37:48;;;;;;;2.43;1.43;;;;;;;;;;5072856;28;20111;-53
2021/01/27 07:40:23;;;;;;;3.40;1.57;;;;;;;;;;5072802;28;20035;-54
2021/01/27 07:43:13;;;;;;;2.97;1.50;;;;;;;;;;5072819;28;20020;-53
2021/01/27 07:45:42;;;;;;;3.37;1.57;;;;;;;;;;5072622;28;20426;-54
2021/01/27 07:48:29;;;;;;;2.60;1.50;;;;;;;;;;5072786;28;20120;-53
2021/01/27 07:50:58;;;;;;;2.63;1.60;;;;;;;;;;5072720;28;20021;-53
2021/01/27 07:53:30;;;;;;;2.80;1.53;;;;;;;;;;5072650;28;20043;-54
2021/01/27 07:55:57;;;;;;;3.10;1.40;;;;;;;;;;5072427;28;20025;-53
2021/01/27 07:58:34;;;;;;;3.43;1.60;;;;;;;;;;5072737;28;20108;-54
2021/01/27 08:01:14;;;;;;;4.47;1.87;;;;;;;;;;5072641;28;20024;-54
2021/01/27 08:03:53;;;;;;;3.43;2.00;;;;;;;;;;5072615;28;20016;-53
2021/01/27 08:06:21;;;;;;;7.00;1.90;;;;;;;;;;5072519;28;20040;-53
2021/01/27 08:08:53;;;;;;;3.23;1.87;;;;;;;;;;5072597;28;20264;-53
2021/01/27 08:11:22;;;;;;;3.57;1.97;;;;;;;;;;5072616;28;20046;-53
2021/01/27 08:13:49;;;;;;;3.97;2.00;;;;;;;;;;5072486;28;20296;-53
2021/01/27 08:16:16;;;;;;;4.53;1.70;;;;;;;;;;5072499;28;20099;-53
2021/01/27 08:19:01;;;;;;;4.03;1.60;;;;;;;;;;5072436;28;20017;-54
2021/01/27 08:21:29;;;;;;;4.28;2.00;;;;;;;;;;5072582;28;20044;-53
2021/01/27 08:23:56;;;;;;;5.57;1.73;;;;;;;;;;5072340;28;20036;-53
2021/01/27 08:26:41;;;;;;;2.93;1.70;;;;;;;;;;5072212;28;20582;-53
2021/01/27 08:29:10;;;;;;;2.90;1.83;;;;;;;;;;5072295;28;20040;-53
2021/01/27 08:31:37;;;;;;;2.50;1.50;;;;;;;;;;5072451;28;20039;-53
2021/01/27 08:34:03;;;;;;;3.00;1.67;;;;;;;;;;5072373;28;20261;-53
2021/01/27 08:36:30;;;;;;;2.47;1.57;;;;;;;;;;5072424;28;20260;-53
2021/01/27 08:38:57;;;;;;;3.93;1.80;;;;;;;;;;5072245;28;20276;-53
2021/01/27 08:41:36;;;;;;;2.90;1.60;;;;;;;;;;5072181;28;20396;-53
2021/01/27 08:44:03;;;;;;;3.43;1.70;;;;;;;;;;5072117;28;20246;-53
2021/01/27 08:46:42;;;;;;;3.33;1.50;;;;;;;;;;5072069;28;20260;-53
2021/01/27 08:49:10;;;;;;;6.60;2.13;;;;;;;;;;5072239;28;20825;-53
2021/01/27 08:51:44;;;;;;;5.37;1.83;;;;;;;;;;5072117;28;20311;-53
2021/01/27 08:54:29;;;;;;;4.35;1.63;;;;;;;;;;5072139;28;20616;-53
2021/01/27 08:57:37;;;;;;;3.85;2.20;;;;;;;;;;5072085;28;20111;-53
2021/01/27 09:00:11;;;;;;;3.00;1.80;;;;;;;;;;4971095;28;20077;-54
2021/01/27 09:02:48;;;;;;;3.33;1.73;;;;;;;;;;4971066;28;20717;-53
2021/01/27 09:05:20;;;;;;;4.10;1.57;;;;;;;;;;5034026;28;20254;-53
2021/01/27 09:07:54;;;;;;;3.53;1.53;;;;;;;;;;5073905;28;20289;-53
2021/01/27 09:10:22;;;;;;;4.87;1.80;;;;;;;;;;5075592;28;20744;-53
2021/01/27 09:12:50;;;;;;;4.13;1.60;;;;;;;;;;5075520;28;20242;-53
2021/01/27 09:15:34;;;;;;;3.30;1.83;;;;;;;;;;5075335;28;20289;-53
2021/01/27 09:18:03;;;;;;;2.77;1.70;;;;;;;;;;5075358;28;20328;-53
2021/01/27 09:20:31;;;;;;;3.20;1.90;;;;;;;;;;5075487;28;20766;-54
2021/01/27 09:23:01;;;;;;;4.00;2.00;;;;;;;;;;5075265;28;20265;-53
2021/01/27 09:25:28;;;;;;;6.57;1.77;;;;;;;;;;5075391;28;20679;-53
2021/01/27 09:28:05;;;;;;;6.07;2.20;;;;;;;;;;5075293;28;20292;-53
2021/01/27 09:30:32;;;;;;;3.47;1.70;;;;;;;;;;5075247;28;20293;-53
2021/01/27 09:33:15;;;;;;;5.50;1.90;;;;;;;;;;5075086;28;20280;-53
2021/01/27 09:35:43;;;;;;;3.27;1.87;;;;;;;;;;5075132;28;20667;-53
2021/01/27 09:38:15;;;;;;;5.53;1.80;;;;;;;;;;5075069;28;20234;-53
2021/01/27 09:40:44;;;;;;;3.03;1.30;;;;;;;;;;5075057;28;20639;-53
2021/01/27 09:43:12;;;;;;;5.23;1.83;;;;;;;;;;5075209;28;20249;-53
2021/01/27 09:45:41;;;;;;;2.07;1.50;;;;;;;;;;5074932;28;20294;-54
2021/01/27 09:48:09;;;;;;;4.07;1.90;;;;;;;;;;5074752;28;20281;-53
2021/01/27 09:50:38;;;;;;;3.90;1.90;;;;;;;;;;5074644;28;20672;-53
2021/01/27 09:53:07;;;;;;;3.23;1.70;;;;;;;;;;5074964;28;20250;-53
2021/01/27 09:55:34;;;;;;;3.47;1.50;;;;;;;;;;5074667;28;20744;-53
2021/01/27 09:58:05;;;;;;;3.77;1.97;;;;;;;;;;5074637;28;20251;-53
2021/01/27 10:00:34;;;;;;;3.20;1.63;;;;;;;;;;5074668;28;20264;-53
2021/01/27 10:03:20;;;;;;;4.40;1.50;;;;;;;;;;5074834;28;20668;-53
2021/01/27 10:05:46;;;;;;;5.05;2.00;;;;;;;;;;5074471;28;20344;-53
2021/01/27 10:08:19;;;;;;;5.93;1.90;;;;;;;;;;5074575;28;20056;-53
2021/01/27 10:10:49;;;;;;;5.87;2.23;;;;;;;;;;5074367;28;20253;-53
2021/01/27 10:13:17;;;;;;;5.47;2.87;;;;;;;;;;5074455;28;20261;-53
2021/01/27 10:15:45;;;;;;;4.43;2.43;;;;;;;;;;5074449;28;20249;-53
2021/01/27 10:18:20;;;;;;;6.40;2.43;;;;;;;;;;5056385;28;20265;-53
2021/01/27 10:21:09;;;;;;;3.60;2.03;;;;;;;;;;5073949;28;20325;-54
2021/01/27 10:23:41;;;;;;;3.20;1.80;;;;;;;;;;5074235;28;20273;-53
2021/01/27 10:26:26;;;;;;;5.23;2.30;;;;;;;;;;5074224;28;20257;-53
2021/01/27 10:29:11;;;;;;;5.07;1.97;;;;;;;;;;5074199;28;20269;-53
2021/01/27 10:31:38;;;;;;;5.80;1.75;;;;;;;;;;5073987;28;20258;-53
2021/01/27 10:34:05;;;;;;;4.43;2.00;;;;;;;;;;5073940;28;20067;-53
2021/01/27 10:36:41;;;;;;;4.43;1.80;;;;;;;;;;5074050;28;20257;-53
2021/01/27 10:39:12;;;;;;;4.13;1.77;;;;;;;;;;5073807;28;20256;-53
2021/01/27 10:41:39;;;;;;;3.00;1.60;;;;;;;;;;5073865;28;20277;-53
2021/01/27 10:44:23;;;;;;;3.43;1.43;;;;;;;;;;5073618;28;20257;-53
2021/01/27 10:46:52;;;;;;;3.83;1.60;;;;;;;;;;5073609;28;20288;-53
2021/01/27 10:49:19;;;;;;;2.50;1.57;;;;;;;;;;5073733;28;20028;-53
2021/01/27 10:51:46;;;;;;;2.83;1.63;;;;;;;;;;5073542;28;20246;-53
2021/01/27 10:54:14;;;;;;;7.07;1.73;;;;;;;;;;5073724;28;20322;-53
2021/01/27 10:56:41;;;;;;;2.67;1.60;;;;;;;;;;5073460;28;20330;-53
2021/01/27 10:59:08;;;;;;;3.30;1.60;;;;;;;;;;5073505;28;20264;-53
2021/01/27 11:01:34;;;;;;;3.67;1.67;;;;;;;;;;5073321;28;20324;-53
2021/01/27 11:04:01;;;;;;;3.17;1.60;;;;;;;;;;5073366;28;20253;-53
2021/01/27 11:06:28;;;;;;;3.13;1.70;;;;;;;;;;5073274;28;20249;-53
2021/01/27 11:08:54;;;;;;;2.53;1.30;;;;;;;;;;5073319;28;20807;-53
2021/01/27 11:11:21;;;;;;;7.40;1.70;;;;;;;;;;5073163;28;20259;-53
2021/01/27 11:13:48;;;;;;;2.97;1.60;;;;;;;;;;5073369;28;20746;-53
2021/01/27 11:16:15;;;;;;;3.00;1.60;;;;;;;;;;5073159;28;20256;-53
2021/01/27 11:18:41;;;;;;;2.93;1.40;;;;;;;;;;5073230;28;20246;-53
2021/01/27 11:21:09;;;;;;;2.90;1.50;;;;;;;;;;5073137;28;20292;-53
2021/01/27 11:23:36;;;;;;;3.13;1.80;;;;;;;;;;5073096;28;20257;-53
2021/01/27 11:26:02;;;;;;;3.27;1.30;;;;;;;;;;5073056;28;20256;-53
2021/01/27 11:28:29;;;;;;;2.93;1.83;;;;;;;;;;5073005;28;20285;-53
2021/01/27 11:30:56;;;;;;;3.67;1.80;;;;;;;;;;5072640;28;20325;-53
2021/01/27 11:33:26;;;;;;;3.57;2.20;;;;;;;;;;5073025;28;20766;-53
2021/01/27 11:35:55;;;;;;;3.20;1.80;;;;;;;;;;5072903;28;20287;-53
2021/01/27 11:38:23;;;;;;;3.57;1.93;;;;;;;;;;5072936;28;20253;-53
2021/01/27 11:40:49;;;;;;;4.07;2.03;;;;;;;;;;5072729;28;20253;-53
2021/01/27 11:43:16;;;;;;;3.07;1.90;;;;;;;;;;5072894;28;20303;-53
2021/01/27 11:45:42;;;;;;;3.57;2.00;;;;;;;;;;5072973;28;20254;-54
2021/01/27 11:48:09;;;;;;;3.23;1.70;;;;;;;;;;5072684;28;20380;-53
2021/01/27 11:50:36;;;;;;;3.53;2.00;;;;;;;;;;5072709;28;20258;-53
2021/01/27 11:53:02;;;;;;;3.33;1.93;;;;;;;;;;5072916;28;20704;-53
2021/01/27 11:55:29;;;;;;;4.23;1.67;;;;;;;;;;5072666;28;20292;-53
2021/01/27 11:57:56;;;;;;;2.50;1.60;;;;;;;;;;5072693;28;20552;-53
2021/01/27 12:00:23;;;;;;;2.70;1.60;;;;;;;;;;5072552;28;20245;-53
2021/01/27 12:02:50;;;;;;;3.43;1.93;;;;;;;;;;5072581;28;20261;-53
2021/01/27 12:05:18;;;;;;;5.87;1.63;;;;;;;;;;5072747;28;20675;-53
2021/01/27 12:07:44;;;;;;;3.37;1.70;;;;;;;;;;5072434;28;20277;-53
2021/01/27 12:10:12;;;;;;;4.93;2.33;;;;;;;;;;5072536;28;20255;-53
2021/01/27 12:12:38;;;;;;;3.93;2.20;;;;;;;;;;5072631;28;20302;-53
2021/01/27 12:15:05;;;;;;;4.93;2.43;;;;;;;;;;5072734;28;20245;-53
2021/01/27 12:17:32;;;;;;;3.50;1.70;;;;;;;;;;5072437;28;20250;-53
2021/01/27 12:19:59;;;;;;;5.03;2.17;;;;;;;;;;5072446;28;20268;-53
2021/01/27 12:22:25;;;;;;;4.27;1.70;;;;;;;;;;5072562;28;20282;-53
2021/01/27 12:24:52;;;;;;;5.20;1.87;;;;;;;;;;5072387;28;20268;-53
2021/01/27 12:27:19;;;;;;;3.23;1.93;;;;;;;;;;5072405;28;20293;-53
2021/01/27 12:29:45;;;;;;;2.97;1.73;;;;;;;;;;5072351;28;20257;-53
2021/01/27 12:32:12;;;;;;;3.57;1.87;;;;;;;;;;5072230;28;20280;-53
2021/01/27 12:34:38;;;;;;;3.10;1.80;;;;;;;;;;5072289;28;20268;-53
2021/01/27 12:37:05;;;;;;;3.43;1.97;;;;;;;;;;5072667;28;20716;-53
2021/01/27 12:39:32;;;;;;;4.00;2.43;;;;;;;;;;5072267;28;20261;-53
2021/01/27 12:41:58;;;;;;;3.43;1.97;;;;;;;;;;5073098;28;20671;-54
2021/01/27 12:44:25;;;;;;;5.00;1.80;;;;;;;;;;5076230;28;20248;-53
2021/01/27 12:46:54;;;;;;;3.50;1.90;;;;;;;;;;5075928;28;20299;-53
2021/01/27 12:49:21;;;;;;;4.23;1.80;;;;;;;;;;5075918;28;20628;-53
2021/01/27 12:51:48;;;;;;;4.37;2.13;;;;;;;;;;5075983;28;20261;-53
2021/01/27 12:54:14;;;;;;;4.40;2.47;;;;;;;;;;5075920;28;20440;-54
2021/01/27 12:56:41;;;;;;;4.00;2.20;;;;;;;;;;5076022;28;20254;-53
2021/01/27 12:59:10;;;;;;;3.97;2.00;;;;;;;;;;5075755;28;20330;-53
2021/01/27 13:01:37;;;;;;;4.23;1.93;;;;;;;;;;5075868;28;20284;-53
2021/01/27 13:04:04;;;;;;;5.33;2.47;;;;;;;;;;5075767;28;20253;-53
2021/01/27 13:06:30;;;;;;;5.23;2.30;;;;;;;;;;5075579;28;20332;-53
2021/01/27 13:08:57;;;;;;;3.97;2.50;;;;;;;;;;5075794;28;20657;-53
2021/01/27 13:11:24;;;;;;;6.87;2.17;;;;;;;;;;5075475;28;20394;-53
2021/01/27 13:13:50;;;;;;;5.83;2.23;;;;;;;;;;5075359;28;20348;-53
2021/01/27 13:16:17;;;;;;;3.47;2.03;;;;;;;;;;5075561;28;20340;-53
2021/01/27 13:18:43;;;;;;;3.00;1.83;;;;;;;;;;5075551;28;20257;-53
2021/01/27 13:21:10;;;;;;;4.37;2.10;;;;;;;;;;5075444;28;20276;-54
2021/01/27 13:23:37;;;;;;;7.03;1.90;;;;;;;;;;5075368;28;20238;-53
2021/01/27 13:26:05;;;;;;;6.27;2.73;;;;;;;;;;5075367;28;20250;-53
2021/01/27 13:28:31;;;;;;;8.53;2.40;;;;;;;;;;5075274;28;20379;-53
2021/01/27 13:30:58;;;;;;;6.00;2.30;;;;;;;;;;5075207;28;20252;-53
2021/01/27 13:33:28;;;;;;;8.07;2.50;;;;;;;;;;5075487;28;20263;-53
2021/01/27 13:35:57;;;;;;;6.50;2.30;;;;;;;;;;5075154;28;20743;-53
2021/01/27 13:38:24;;;;;;;6.73;2.50;;;;;;;;;;5075043;28;20285;-53
2021/01/27 13:40:52;;;;;;;11.20;4.20;;;;;;;;;;5075132;28;20319;-53
2021/01/27 13:43:19;;;;;;;5.80;2.63;;;;;;;;;;5074828;28;20258;-53
2021/01/27 13:45:45;;;;;;;4.83;2.30;;;;;;;;;;5074944;28;20261;-53
2021/01/27 13:48:19;;;;;;;5.80;3.17;;;;;;;;;;5074650;28;20347;-53
2021/01/27 13:50:45;;;;;;;9.67;2.70;;;;;;;;;;5074794;28;20315;-53
2021/01/27 13:53:12;;;;;;;11.27;4.67;;;;;;;;;;5074495;28;20276;-54
2021/01/27 13:55:39;;;;;;;8.30;3.50;;;;;;;;;;5074850;28;20249;-54
2021/01/27 13:58:05;;;;;;;8.37;3.90;;;;;;;;;;5074700;28;20254;-54
2021/01/27 14:00:32;;;;;;;8.53;3.30;;;;;;;;;;5074736;28;20253;-54
2021/01/27 14:03:01;;;;;;;8.03;2.97;;;;;;;;;;5074881;28;20249;-54
2021/01/27 14:05:27;;;;;;;6.60;2.80;;;;;;;;;;5074536;28;20261;-54
2021/01/27 14:07:55;;;;;;;6.40;2.90;;;;;;;;;;5074274;28;20277;-54
2021/01/27 14:10:23;;;;;;;11.17;3.77;;;;;;;;;;5074499;28;20557;-54
2021/01/27 14:12:50;;;;;;;5.37;3.33;;;;;;;;;;5074636;28;20676;-54
2021/01/27 14:15:17;;;;;;;7.90;3.70;;;;;;;;;;5074290;28;20257;-54
2021/01/27 14:17:44;;;;;;;10.57;4.20;;;;;;;;;;5074404;28;20249;-54
2021/01/27 14:20:11;;;;;;;8.93;4.37;;;;;;;;;;5074173;28;20253;-54
2021/01/27 14:22:38;;;;;;;13.87;4.67;;;;;;;;;;5074411;28;20350;-54
2021/01/27 14:25:05;;;;;;;17.93;5.30;;;;;;;;;;5074392;28;20256;-54
2021/01/27 14:27:31;;;;;;;9.60;5.60;;;;;;;;;;5074339;28;20339;-54
2021/01/27 14:29:58;;;;;;;16.80;6.33;;;;;;;;;;5074355;28;20352;-54
2021/01/27 14:32:25;;;;;;;16.37;6.30;;;;;;;;;;5074019;28;20245;-54
2021/01/27 14:34:51;;;;;;;11.57;5.60;;;;;;;;;;5073987;28;20762;-54
2021/01/27 14:37:18;;;;;;;14.70;7.10;;;;;;;;;;5073856;28;20037;-54
2021/01/27 14:39:47;;;;;;;9.47;5.80;;;;;;;;;;5073900;28;20020;-54
2021/01/27 14:42:13;;;;;;;9.07;4.70;;;;;;;;;;5073782;28;20035;-54
2021/01/27 14:44:40;;;;;;;6.40;4.33;;;;;;;;;;5073654;28;20111;-54
2021/01/27 14:47:07;;;;;;;7.93;3.70;;;;;;;;;;5073680;28;20034;-54
2021/01/27 14:49:33;;;;;;;6.77;3.53;;;;;;;;;;5073613;28;20036;-54
2021/01/27 14:52:00;;;;;;;10.10;3.40;;;;;;;;;;5073705;28;20032;-54
2021/01/27 14:54:26;;;;;;;4.97;2.80;;;;;;;;;;5073559;28;20544;-54
2021/01/27 14:56:53;;;;;;;9.70;3.17;;;;;;;;;;5073466;28;20032;-54
2021/01/27 14:59:20;;;;;;;8.13;3.40;;;;;;;;;;5073511;28;20052;-54
2021/01/27 15:01:46;;;;;;;8.60;3.27;;;;;;;;;;5073356;28;20017;-54